sensor_id;sensor_type;location;lat;lon;timestamp;temperature;humidity
9107;DHT22;4589;48.690;8.952;2023-02-19T00:04:16;9.60;99.90
9107;DHT22;4589;48.690;8.952;2023-02-19T00:06:43;9.60;99.90
9107;DHT22;4589;48.690;8.952;2023-02-19T00:09:11;9.60;99.90
9107;DHT22;4589;48.690;8.952;2023-02-19T00:11:37;9.50;99.90
9107;DHT22;4589;48.690;8.952;2023-02-19T00:14:03;9.60;99.90
9107;DHT22;4589;48.690;8.952;2023-02-19T00:16:36;9.50;99.90
9107;DHT22;4589;48.690;8.952;2023-02-19T00:19:05;9.50;99.90
9107;DHT22;4589;48.690;8.952;2023-02-19T00:21:32;9.50;99.90
9107;DHT22;4589;48.690;8.952;2023-02-19T00:24:01;9.50;99.90
9107;DHT22;4589;48.690;8.952;2023-02-19T00:26:27;9.60;99.90
9107;DHT22;4589;48.690;8.952;2023-02-19T00:28:54;9.60;99.90
9107;DHT22;4589;48.690;8.952;2023-02-19T00:31:28;9.50;99.90
9107;DHT22;4589;48.690;8.952;2023-02-19T00:33:56;9.50;99.90
9107;DHT22;4589;48.690;8.952;2023-02-19T00:36:23;9.50;99.90
9107;DHT22;4589;48.690;8.952;2023-02-19T00:38:49;9.40;99.90
9107;DHT22;4589;48.690;8.952;2023-02-19T00:41:16;9.40;99.90
9107;DHT22;4589;48.690;8.952;2023-02-19T00:46:21;9.40;99.90
9107;DHT22;4589;48.690;8.952;2023-02-19T00:48:48;9.40;99.90
9107;DHT22;4589;48.690;8.952;2023-02-19T00:51:14;9.40;99.90
9107;DHT22;4589;48.690;8.952;2023-02-19T00:53:40;9.40;99.90
9107;DHT22;4589;48.690;8.952;2023-02-19T00:56:07;9.40;99.90
9107;DHT22;4589;48.690;8.952;2023-02-19T00:58:33;9.40;99.90
9107;DHT22;4589;48.690;8.952;2023-02-19T01:03:25;9.40;99.90
9107;DHT22;4589;48.690;8.952;2023-02-19T01:22:53;9.30;99.90
9107;DHT22;4589;48.690;8.952;2023-02-19T01:25:19;9.30;99.90
9107;DHT22;4589;48.690;8.952;2023-02-19T01:27:44;9.30;99.90
9107;DHT22;4589;48.690;8.952;2023-02-19T01:30:11;9.30;99.90
9107;DHT22;4589;48.690;8.952;2023-02-19T01:37:28;9.20;99.90
9107;DHT22;4589;48.690;8.952;2023-02-19T01:39:54;9.20;99.90
9107;DHT22;4589;48.690;8.952;2023-02-19T01:42:19;9.10;99.90
9107;DHT22;4589;48.690;8.952;2023-02-19T01:49:43;8.80;99.90
9107;DHT22;4589;48.690;8.952;2023-02-19T01:52:24;9.10;99.90
9107;DHT22;4589;48.690;8.952;2023-02-19T01:54:50;9.10;99.90
9107;DHT22;4589;48.690;8.952;2023-02-19T01:57:24;9.10;99.90
9107;DHT22;4589;48.690;8.952;2023-02-19T01:59:53;9.10;99.90
9107;DHT22;4589;48.690;8.952;2023-02-19T02:02:23;9.10;99.90
9107;DHT22;4589;48.690;8.952;2023-02-19T02:04:53;9.00;99.90
9107;DHT22;4589;48.690;8.952;2023-02-19T02:07:19;9.00;99.90
9107;DHT22;4589;48.690;8.952;2023-02-19T02:10:04;9.00;99.90
9107;DHT22;4589;48.690;8.952;2023-02-19T02:12:48;9.00;99.90
9107;DHT22;4589;48.690;8.952;2023-02-19T02:15:15;9.00;99.90
9107;DHT22;4589;48.690;8.952;2023-02-19T02:17:57;8.90;99.90
9107;DHT22;4589;48.690;8.952;2023-02-19T02:20:49;8.90;99.90
9107;DHT22;4589;48.690;8.952;2023-02-19T02:31:53;8.90;99.90
9107;DHT22;4589;48.690;8.952;2023-02-19T02:34:33;8.90;99.90
9107;DHT22;4589;48.690;8.952;2023-02-19T02:37:03;8.80;99.90
9107;DHT22;4589;48.690;8.952;2023-02-19T02:39:30;8.90;99.90
9107;DHT22;4589;48.690;8.952;2023-02-19T02:41:58;8.80;99.90
9107;DHT22;4589;48.690;8.952;2023-02-19T02:44:43;8.80;99.90
9107;DHT22;4589;48.690;8.952;2023-02-19T02:47:35;8.80;99.90
9107;DHT22;4589;48.690;8.952;2023-02-19T02:50:26;8.70;99.90
9107;DHT22;4589;48.690;8.952;2023-02-19T02:53:04;8.70;99.90
9107;DHT22;4589;48.690;8.952;2023-02-19T02:55:51;8.70;99.90
9107;DHT22;4589;48.690;8.952;2023-02-19T02:58:20;8.70;99.90
9107;DHT22;4589;48.690;8.952;2023-02-19T03:00:55;8.70;99.90
9107;DHT22;4589;48.690;8.952;2023-02-19T03:03:42;8.70;99.90
9107;DHT22;4589;48.690;8.952;2023-02-19T03:06:11;8.70;99.90
9107;DHT22;4589;48.690;8.952;2023-02-19T03:08:58;8.70;99.90
9107;DHT22;4589;48.690;8.952;2023-02-19T03:11:25;8.70;99.90
9107;DHT22;4589;48.690;8.952;2023-02-19T03:14:15;8.70;99.90
9107;DHT22;4589;48.690;8.952;2023-02-19T03:17:19;8.70;99.90
9107;DHT22;4589;48.690;8.952;2023-02-19T03:20:08;8.70;99.90
9107;DHT22;4589;48.690;8.952;2023-02-19T03:22:37;8.70;99.90
9107;DHT22;4589;48.690;8.952;2023-02-19T03:25:17;8.70;99.90
9107;DHT22;4589;48.690;8.952;2023-02-19T03:28:05;8.60;99.90
9107;DHT22;4589;48.690;8.952;2023-02-19T03:30:40;8.50;99.90
9107;DHT22;4589;48.690;8.952;2023-02-19T03:33:14;8.50;99.90
9107;DHT22;4589;48.690;8.952;2023-02-19T03:35:45;8.50;99.90
9107;DHT22;4589;48.690;8.952;2023-02-19T03:38:26;8.50;99.90
9107;DHT22;4589;48.690;8.952;2023-02-19T03:43:26;8.50;99.90
9107;DHT22;4589;48.690;8.952;2023-02-19T03:46:12;8.40;99.90
9107;DHT22;4589;48.690;8.952;2023-02-19T03:48:52;8.40;99.90
9107;DHT22;4589;48.690;8.952;2023-02-19T03:51:36;8.40;99.90
9107;DHT22;4589;48.690;8.952;2023-02-19T03:54:10;8.30;99.90
9107;DHT22;4589;48.690;8.952;2023-02-19T03:56:47;8.30;99.90
9107;DHT22;4589;48.690;8.952;2023-02-19T04:02:10;8.20;99.90
9107;DHT22;4589;48.690;8.952;2023-02-19T04:07:32;8.30;99.90
9107;DHT22;4589;48.690;8.952;2023-02-19T04:09:59;8.30;99.90
9107;DHT22;4589;48.690;8.952;2023-02-19T04:12:26;8.30;99.90
9107;DHT22;4589;48.690;8.952;2023-02-19T04:15:00;8.30;99.90
9107;DHT22;4589;48.690;8.952;2023-02-19T04:17:34;8.30;99.90
9107;DHT22;4589;48.690;8.952;2023-02-19T04:20:06;8.30;99.90
9107;DHT22;4589;48.690;8.952;2023-02-19T04:22:33;8.30;99.90
9107;DHT22;4589;48.690;8.952;2023-02-19T04:25:00;8.30;99.90
9107;DHT22;4589;48.690;8.952;2023-02-19T04:27:26;8.30;99.90
9107;DHT22;4589;48.690;8.952;2023-02-19T04:32:17;8.20;99.90
9107;DHT22;4589;48.690;8.952;2023-02-19T04:39:35;8.30;99.90
9107;DHT22;4589;48.690;8.952;2023-02-19T04:44:27;8.20;99.90
9107;DHT22;4589;48.690;8.952;2023-02-19T04:49:18;8.20;99.90
9107;DHT22;4589;48.690;8.952;2023-02-19T04:56:36;8.20;99.90
9107;DHT22;4589;48.690;8.952;2023-02-19T04:59:01;8.20;99.90
9107;DHT22;4589;48.690;8.952;2023-02-19T05:01:27;8.20;99.90
9107;DHT22;4589;48.690;8.952;2023-02-19T05:11:11;8.10;99.90
9107;DHT22;4589;48.690;8.952;2023-02-19T05:13:38;8.10;99.90
9107;DHT22;4589;48.690;8.952;2023-02-19T05:16:12;8.10;99.90
9107;DHT22;4589;48.690;8.952;2023-02-19T05:18:41;8.10;99.90
9107;DHT22;4589;48.690;8.952;2023-02-19T05:21:07;8.10;99.90
9107;DHT22;4589;48.690;8.952;2023-02-19T05:23:33;8.10;99.90
9107;DHT22;4589;48.690;8.952;2023-02-19T05:26:07;8.10;99.90
9107;DHT22;4589;48.690;8.952;2023-02-19T05:28:33;8.00;99.90
9107;DHT22;4589;48.690;8.952;2023-02-19T05:31:04;8.00;99.90
9107;DHT22;4589;48.690;8.952;2023-02-19T05:33:31;8.10;99.90
9107;DHT22;4589;48.690;8.952;2023-02-19T05:38:23;8.20;99.90
9107;DHT22;4589;48.690;8.952;2023-02-19T05:40:49;8.30;99.90
9107;DHT22;4589;48.690;8.952;2023-02-19T05:43:15;8.20;99.90
9107;DHT22;4589;48.690;8.952;2023-02-19T05:48:07;8.20;99.90
9107;DHT22;4589;48.690;8.952;2023-02-19T05:50:35;8.20;99.90
9107;DHT22;4589;48.690;8.952;2023-02-19T05:53:02;8.20;99.90
9107;DHT22;4589;48.690;8.952;2023-02-19T05:57:54;8.20;99.90
9107;DHT22;4589;48.690;8.952;2023-02-19T06:00:20;8.20;99.90
9107;DHT22;4589;48.690;8.952;2023-02-19T06:02:46;8.10;99.90
9107;DHT22;4589;48.690;8.952;2023-02-19T06:05:12;8.10;99.90
9107;DHT22;4589;48.690;8.952;2023-02-19T06:07:38;8.10;99.90
9107;DHT22;4589;48.690;8.952;2023-02-19T06:10:05;8.20;99.90
9107;DHT22;4589;48.690;8.952;2023-02-19T06:12:31;8.10;99.90
9107;DHT22;4589;48.690;8.952;2023-02-19T06:17:23;7.90;99.90
9107;DHT22;4589;48.690;8.952;2023-02-19T06:27:09;7.80;99.90
9107;DHT22;4589;48.690;8.952;2023-02-19T06:32:05;7.90;99.90
9107;DHT22;4589;48.690;8.952;2023-02-19T06:34:31;7.80;99.90
9107;DHT22;4589;48.690;8.952;2023-02-19T06:36:57;7.90;99.90
9107;DHT22;4589;48.690;8.952;2023-02-19T06:39:23;7.90;99.90
9107;DHT22;4589;48.690;8.952;2023-02-19T06:44:14;8.00;99.90
9107;DHT22;4589;48.690;8.952;2023-02-19T06:49:06;8.00;99.90
9107;DHT22;4589;48.690;8.952;2023-02-19T06:51:32;8.00;99.90
9107;DHT22;4589;48.690;8.952;2023-02-19T06:53:58;8.10;99.90
9107;DHT22;4589;48.690;8.952;2023-02-19T06:56:34;8.10;99.90
9107;DHT22;4589;48.690;8.952;2023-02-19T06:59:01;8.10;99.90
9107;DHT22;4589;48.690;8.952;2023-02-19T07:01:29;8.20;99.90
9107;DHT22;4589;48.690;8.952;2023-02-19T07:03:55;8.20;99.90
9107;DHT22;4589;48.690;8.952;2023-02-19T07:06:22;8.20;99.90
9107;DHT22;4589;48.690;8.952;2023-02-19T07:08:48;8.20;99.90
9107;DHT22;4589;48.690;8.952;2023-02-19T07:11:14;8.10;99.90
9107;DHT22;4589;48.690;8.952;2023-02-19T07:13:39;8.20;99.90
9107;DHT22;4589;48.690;8.952;2023-02-19T07:16:07;8.20;99.90
9107;DHT22;4589;48.690;8.952;2023-02-19T07:21:10;8.10;99.90
9107;DHT22;4589;48.690;8.952;2023-02-19T07:23:36;8.10;99.90
9107;DHT22;4589;48.690;8.952;2023-02-19T07:26:03;8.10;99.90
9107;DHT22;4589;48.690;8.952;2023-02-19T07:28:29;8.10;99.90
9107;DHT22;4589;48.690;8.952;2023-02-19T07:30:59;8.10;99.90
9107;DHT22;4589;48.690;8.952;2023-02-19T07:33:26;8.10;99.90
9107;DHT22;4589;48.690;8.952;2023-02-19T07:35:51;8.10;99.90
9107;DHT22;4589;48.690;8.952;2023-02-19T07:38:18;8.10;99.90
9107;DHT22;4589;48.690;8.952;2023-02-19T07:40:56;8.10;99.90
9107;DHT22;4589;48.690;8.952;2023-02-19T07:43:22;8.00;99.90
9107;DHT22;4589;48.690;8.952;2023-02-19T07:53:07;7.90;99.90
9107;DHT22;4589;48.690;8.952;2023-02-19T07:55:33;7.90;99.90
9107;DHT22;4589;48.690;8.952;2023-02-19T07:57:59;8.00;99.90
9107;DHT22;4589;48.690;8.952;2023-02-19T08:00:25;8.00;99.90
9107;DHT22;4589;48.690;8.952;2023-02-19T08:02:52;8.10;99.90
9107;DHT22;4589;48.690;8.952;2023-02-19T08:05:28;8.20;99.90
9107;DHT22;4589;48.690;8.952;2023-02-19T08:07:54;8.20;99.90
9107;DHT22;4589;48.690;8.952;2023-02-19T08:13:05;8.30;99.90
9107;DHT22;4589;48.690;8.952;2023-02-19T08:18:18;8.10;99.90
9107;DHT22;4589;48.690;8.952;2023-02-19T08:20:44;8.00;99.90
9107;DHT22;4589;48.690;8.952;2023-02-19T08:23:10;7.90;99.90
9107;DHT22;4589;48.690;8.952;2023-02-19T08:25:37;7.90;99.90
9107;DHT22;4589;48.690;8.952;2023-02-19T08:28:04;7.90;99.90
9107;DHT22;4589;48.690;8.952;2023-02-19T08:30:30;7.90;99.90
9107;DHT22;4589;48.690;8.952;2023-02-19T08:32:59;7.90;99.90
9107;DHT22;4589;48.690;8.952;2023-02-19T08:35:25;8.00;99.90
9107;DHT22;4589;48.690;8.952;2023-02-19T08:37:50;8.00;99.90
9107;DHT22;4589;48.690;8.952;2023-02-19T08:40:19;8.10;99.90
9107;DHT22;4589;48.690;8.952;2023-02-19T08:42:44;8.20;99.90
9107;DHT22;4589;48.690;8.952;2023-02-19T08:50:04;8.30;99.90
9107;DHT22;4589;48.690;8.952;2023-02-19T08:52:30;8.40;99.90
9107;DHT22;4589;48.690;8.952;2023-02-19T09:02:15;9.00;99.90
9107;DHT22;4589;48.690;8.952;2023-02-19T09:07:06;9.10;99.90
9107;DHT22;4589;48.690;8.952;2023-02-19T09:09:36;9.20;99.90
9107;DHT22;4589;48.690;8.952;2023-02-19T09:12:04;9.20;99.90
9107;DHT22;4589;48.690;8.952;2023-02-19T09:14:33;9.30;99.90
9107;DHT22;4589;48.690;8.952;2023-02-19T09:19:26;9.40;99.90
9107;DHT22;4589;48.690;8.952;2023-02-19T09:31:36;9.30;99.90
9107;DHT22;4589;48.690;8.952;2023-02-19T09:34:01;9.20;99.90
9107;DHT22;4589;48.690;8.952;2023-02-19T09:41:28;9.30;99.90
9107;DHT22;4589;48.690;8.952;2023-02-19T09:43:54;9.30;99.90
9107;DHT22;4589;48.690;8.952;2023-02-19T09:49:18;9.10;99.90
9107;DHT22;4589;48.690;8.952;2023-02-19T09:51:53;9.10;99.90
9107;DHT22;4589;48.690;8.952;2023-02-19T09:54:22;8.90;99.90
9107;DHT22;4589;48.690;8.952;2023-02-19T09:56:50;8.80;99.90
9107;DHT22;4589;48.690;8.952;2023-02-19T09:59:20;8.70;99.90
9107;DHT22;4589;48.690;8.952;2023-02-19T10:01:48;8.70;99.90
9107;DHT22;4589;48.690;8.952;2023-02-19T10:04:16;8.70;99.90
9107;DHT22;4589;48.690;8.952;2023-02-19T10:06:42;8.70;99.90
9107;DHT22;4589;48.690;8.952;2023-02-19T10:09:22;8.60;99.90
9107;DHT22;4589;48.690;8.952;2023-02-19T10:11:51;8.70;99.90
9107;DHT22;4589;48.690;8.952;2023-02-19T10:14:31;8.70;99.90
9107;DHT22;4589;48.690;8.952;2023-02-19T10:17:01;8.70;99.90
9107;DHT22;4589;48.690;8.952;2023-02-19T10:19:28;8.80;99.90
9107;DHT22;4589;48.690;8.952;2023-02-19T10:21:53;8.80;99.90
9107;DHT22;4589;48.690;8.952;2023-02-19T10:24:24;8.90;99.90
9107;DHT22;4589;48.690;8.952;2023-02-19T10:26:51;8.90;99.90
9107;DHT22;4589;48.690;8.952;2023-02-19T10:34:20;8.90;99.90
9107;DHT22;4589;48.690;8.952;2023-02-19T10:36:47;9.00;99.90
9107;DHT22;4589;48.690;8.952;2023-02-19T10:41:47;9.20;99.90
9107;DHT22;4589;48.690;8.952;2023-02-19T10:44:15;9.40;99.90
9107;DHT22;4589;48.690;8.952;2023-02-19T10:46:45;9.50;99.90
9107;DHT22;4589;48.690;8.952;2023-02-19T10:49:29;9.50;99.90
9107;DHT22;4589;48.690;8.952;2023-02-19T10:51:59;9.70;99.90
9107;DHT22;4589;48.690;8.952;2023-02-19T10:54:28;9.80;99.90
9107;DHT22;4589;48.690;8.952;2023-02-19T11:02:42;10.20;99.90
9107;DHT22;4589;48.690;8.952;2023-02-19T11:07:43;10.10;99.90
9107;DHT22;4589;48.690;8.952;2023-02-19T11:12:47;10.20;99.90
9107;DHT22;4589;48.690;8.952;2023-02-19T11:20:38;9.80;99.90
9107;DHT22;4589;48.690;8.952;2023-02-19T11:23:17;9.90;99.90
9107;DHT22;4589;48.690;8.952;2023-02-19T11:25:49;9.90;99.90
9107;DHT22;4589;48.690;8.952;2023-02-19T11:28:38;9.90;99.90
9107;DHT22;4589;48.690;8.952;2023-02-19T11:36:38;9.80;99.90
9107;DHT22;4589;48.690;8.952;2023-02-19T11:39:22;9.80;99.90
9107;DHT22;4589;48.690;8.952;2023-02-19T11:42:06;9.80;99.90
9107;DHT22;4589;48.690;8.952;2023-02-19T11:53:05;9.90;99.90
9107;DHT22;4589;48.690;8.952;2023-02-19T12:06:39;10.20;99.90
9107;DHT22;4589;48.690;8.952;2023-02-19T12:22:30;10.50;99.90
9107;DHT22;4589;48.690;8.952;2023-02-19T12:25:20;10.50;99.90
9107;DHT22;4589;48.690;8.952;2023-02-19T12:36:42;10.80;99.90
9107;DHT22;4589;48.690;8.952;2023-02-19T12:45:04;12.00;99.90
9107;DHT22;4589;48.690;8.952;2023-02-19T12:47:37;11.90;99.90
9107;DHT22;4589;48.690;8.952;2023-02-19T12:50:23;12.20;99.90
9107;DHT22;4589;48.690;8.952;2023-02-19T12:52:55;12.90;99.90
9107;DHT22;4589;48.690;8.952;2023-02-19T12:55:36;12.90;99.90
9107;DHT22;4589;48.690;8.952;2023-02-19T12:58:04;12.50;99.90
9107;DHT22;4589;48.690;8.952;2023-02-19T13:00:46;12.20;99.90
9107;DHT22;4589;48.690;8.952;2023-02-19T13:03:24;12.20;99.90
9107;DHT22;4589;48.690;8.952;2023-02-19T13:11:08;12.20;99.90
9107;DHT22;4589;48.690;8.952;2023-02-19T13:13:51;12.20;99.90
9107;DHT22;4589;48.690;8.952;2023-02-19T13:16:20;12.20;99.90
9107;DHT22;4589;48.690;8.952;2023-02-19T13:18:52;12.20;99.90
9107;DHT22;4589;48.690;8.952;2023-02-19T13:21:20;12.00;99.90
9107;DHT22;4589;48.690;8.952;2023-02-19T13:24:12;12.00;99.90
9107;DHT22;4589;48.690;8.952;2023-02-19T13:30:11;11.60;99.90
9107;DHT22;4589;48.690;8.952;2023-02-19T13:36:11;11.00;99.90
9107;DHT22;4589;48.690;8.952;2023-02-19T13:38:43;10.80;99.90
9107;DHT22;4589;48.690;8.952;2023-02-19T13:41:25;10.70;99.90
9107;DHT22;4589;48.690;8.952;2023-02-19T13:44:00;10.60;99.90
9107;DHT22;4589;48.690;8.952;2023-02-19T13:46:38;10.50;99.90
9107;DHT22;4589;48.690;8.952;2023-02-19T13:51:56;10.60;99.90
9107;DHT22;4589;48.690;8.952;2023-02-19T13:57:26;10.70;99.90
9107;DHT22;4589;48.690;8.952;2023-02-19T13:59:54;10.70;99.90
9107;DHT22;4589;48.690;8.952;2023-02-19T14:04:57;10.70;99.90
9107;DHT22;4589;48.690;8.952;2023-02-19T14:07:47;10.90;99.90
9107;DHT22;4589;48.690;8.952;2023-02-19T14:12:59;11.10;99.90
9107;DHT22;4589;48.690;8.952;2023-02-19T14:15:42;11.20;99.90
9107;DHT22;4589;48.690;8.952;2023-02-19T14:18:41;11.00;99.90
9107;DHT22;4589;48.690;8.952;2023-02-19T14:21:17;10.90;99.90
9107;DHT22;4589;48.690;8.952;2023-02-19T14:23:52;10.90;99.90
9107;DHT22;4589;48.690;8.952;2023-02-19T14:28:45;10.80;99.90
9107;DHT22;4589;48.690;8.952;2023-02-19T14:31:33;10.70;99.90
9107;DHT22;4589;48.690;8.952;2023-02-19T14:34:04;10.70;99.90
9107;DHT22;4589;48.690;8.952;2023-02-19T14:38:59;10.40;99.90
9107;DHT22;4589;48.690;8.952;2023-02-19T14:41:27;10.50;99.90
9107;DHT22;4589;48.690;8.952;2023-02-19T14:43:55;10.30;99.90
9107;DHT22;4589;48.690;8.952;2023-02-19T14:46:29;10.30;99.90
9107;DHT22;4589;48.690;8.952;2023-02-19T14:49:03;10.30;99.90
9107;DHT22;4589;48.690;8.952;2023-02-19T14:51:37;10.20;99.90
9107;DHT22;4589;48.690;8.952;2023-02-19T14:54:20;10.20;99.90
9107;DHT22;4589;48.690;8.952;2023-02-19T14:56:50;10.00;99.90
9107;DHT22;4589;48.690;8.952;2023-02-19T14:59:28;10.00;99.90
9107;DHT22;4589;48.690;8.952;2023-02-19T15:02:13;10.00;99.90
9107;DHT22;4589;48.690;8.952;2023-02-19T15:07:07;9.90;99.90
9107;DHT22;4589;48.690;8.952;2023-02-19T15:09:38;9.90;99.90
9107;DHT22;4589;48.690;8.952;2023-02-19T15:12:07;9.90;99.90
9107;DHT22;4589;48.690;8.952;2023-02-19T15:14:38;9.80;99.90
9107;DHT22;4589;48.690;8.952;2023-02-19T15:17:05;9.90;99.90
9107;DHT22;4589;48.690;8.952;2023-02-19T15:19:32;9.80;99.90
9107;DHT22;4589;48.690;8.952;2023-02-19T15:22:00;9.80;99.90
9107;DHT22;4589;48.690;8.952;2023-02-19T15:24:27;9.70;99.90
9107;DHT22;4589;48.690;8.952;2023-02-19T15:26:54;9.60;99.90
9107;DHT22;4589;48.690;8.952;2023-02-19T15:29:22;9.70;99.90
9107;DHT22;4589;48.690;8.952;2023-02-19T15:31:50;9.50;99.90
9107;DHT22;4589;48.690;8.952;2023-02-19T15:34:22;9.50;99.90
9107;DHT22;4589;48.690;8.952;2023-02-19T15:36:49;9.60;99.90
9107;DHT22;4589;48.690;8.952;2023-02-19T15:39:21;9.50;99.90
9107;DHT22;4589;48.690;8.952;2023-02-19T15:41:56;9.50;99.90
9107;DHT22;4589;48.690;8.952;2023-02-19T15:44:43;9.40;99.90
9107;DHT22;4589;48.690;8.952;2023-02-19T15:47:22;9.40;99.90
9107;DHT22;4589;48.690;8.952;2023-02-19T15:49:56;9.30;99.90
9107;DHT22;4589;48.690;8.952;2023-02-19T15:52:31;9.30;99.90
9107;DHT22;4589;48.690;8.952;2023-02-19T15:55:11;9.30;99.90
9107;DHT22;4589;48.690;8.952;2023-02-19T15:57:43;9.10;99.90
9107;DHT22;4589;48.690;8.952;2023-02-19T16:00:20;8.90;99.90
9107;DHT22;4589;48.690;8.952;2023-02-19T16:02:47;8.80;99.90
9107;DHT22;4589;48.690;8.952;2023-02-19T16:05:21;8.70;99.90
9107;DHT22;4589;48.690;8.952;2023-02-19T16:13:02;8.50;99.90
9107;DHT22;4589;48.690;8.952;2023-02-19T16:15:30;8.50;99.90
9107;DHT22;4589;48.690;8.952;2023-02-19T16:17:57;8.50;99.90
9107;DHT22;4589;48.690;8.952;2023-02-19T16:20:25;8.40;99.90
9107;DHT22;4589;48.690;8.952;2023-02-19T16:22:59;8.40;99.90
9107;DHT22;4589;48.690;8.952;2023-02-19T16:25:40;8.40;99.90
9107;DHT22;4589;48.690;8.952;2023-02-19T16:28:20;8.20;99.90
9107;DHT22;4589;48.690;8.952;2023-02-19T16:30:46;8.10;99.90
9107;DHT22;4589;48.690;8.952;2023-02-19T16:33:34;7.90;99.90
9107;DHT22;4589;48.690;8.952;2023-02-19T16:36:18;7.80;99.90
9107;DHT22;4589;48.690;8.952;2023-02-19T16:41:28;7.60;99.90
9107;DHT22;4589;48.690;8.952;2023-02-19T16:43:54;7.50;99.90
9107;DHT22;4589;48.690;8.952;2023-02-19T16:51:25;7.20;99.90
9107;DHT22;4589;48.690;8.952;2023-02-19T16:53:51;7.20;99.90
9107;DHT22;4589;48.690;8.952;2023-02-19T16:56:17;7.20;99.90
9107;DHT22;4589;48.690;8.952;2023-02-19T16:58:45;7.10;99.90
9107;DHT22;4589;48.690;8.952;2023-02-19T17:01:11;7.10;99.90
9107;DHT22;4589;48.690;8.952;2023-02-19T17:03:37;7.10;99.90
9107;DHT22;4589;48.690;8.952;2023-02-19T17:06:03;7.10;99.90
9107;DHT22;4589;48.690;8.952;2023-02-19T17:08:47;7.10;99.90
9107;DHT22;4589;48.690;8.952;2023-02-19T17:11:15;7.00;99.90
9107;DHT22;4589;48.690;8.952;2023-02-19T17:13:41;7.10;99.90
9107;DHT22;4589;48.690;8.952;2023-02-19T17:16:20;7.10;99.90
9107;DHT22;4589;48.690;8.952;2023-02-19T17:18:46;7.00;99.90
9107;DHT22;4589;48.690;8.952;2023-02-19T17:33:21;7.10;99.90
9107;DHT22;4589;48.690;8.952;2023-02-19T17:35:47;7.10;99.90
9107;DHT22;4589;48.690;8.952;2023-02-19T17:40:39;7.10;99.90
9107;DHT22;4589;48.690;8.952;2023-02-19T17:43:05;7.10;99.90
9107;DHT22;4589;48.690;8.952;2023-02-19T17:50:25;7.00;99.90
9107;DHT22;4589;48.690;8.952;2023-02-19T17:55:18;7.00;99.90
9107;DHT22;4589;48.690;8.952;2023-02-19T17:57:44;7.00;99.90
9107;DHT22;4589;48.690;8.952;2023-02-19T18:00:16;7.00;99.90
9107;DHT22;4589;48.690;8.952;2023-02-19T18:02:42;7.10;99.90
9107;DHT22;4589;48.690;8.952;2023-02-19T18:10:00;7.00;99.90
9107;DHT22;4589;48.690;8.952;2023-02-19T18:14:52;7.10;99.90
9107;DHT22;4589;48.690;8.952;2023-02-19T18:17:21;7.10;99.90
9107;DHT22;4589;48.690;8.952;2023-02-19T18:19:46;7.10;99.90
9107;DHT22;4589;48.690;8.952;2023-02-19T18:24:48;7.20;99.90
9107;DHT22;4589;48.690;8.952;2023-02-19T18:27:14;7.20;99.90
9107;DHT22;4589;48.690;8.952;2023-02-19T18:29:40;7.30;99.90
9107;DHT22;4589;48.690;8.952;2023-02-19T18:36:57;7.30;99.90
9107;DHT22;4589;48.690;8.952;2023-02-19T18:41:50;7.30;99.90
9107;DHT22;4589;48.690;8.952;2023-02-19T18:44:21;7.30;99.90
9107;DHT22;4589;48.690;8.952;2023-02-19T18:49:14;7.40;99.90
9107;DHT22;4589;48.690;8.952;2023-02-19T18:56:41;7.30;99.90
9107;DHT22;4589;48.690;8.952;2023-02-19T18:59:07;7.30;99.90
9107;DHT22;4589;48.690;8.952;2023-02-19T19:01:33;7.30;99.90
9107;DHT22;4589;48.690;8.952;2023-02-19T19:03:58;7.30;99.90
9107;DHT22;4589;48.690;8.952;2023-02-19T19:08:50;7.10;99.90
9107;DHT22;4589;48.690;8.952;2023-02-19T19:13:41;7.20;99.90
9107;DHT22;4589;48.690;8.952;2023-02-19T19:21:03;7.20;99.90
9107;DHT22;4589;48.690;8.952;2023-02-19T19:35:39;7.20;99.90
9107;DHT22;4589;48.690;8.952;2023-02-19T19:40:30;7.20;99.90
9107;DHT22;4589;48.690;8.952;2023-02-19T19:50:16;7.20;99.90
9107;DHT22;4589;48.690;8.952;2023-02-19T20:00:01;7.10;99.90
9107;DHT22;4589;48.690;8.952;2023-02-19T20:02:27;7.10;99.90
9107;DHT22;4589;48.690;8.952;2023-02-19T20:04:52;7.20;99.90
9107;DHT22;4589;48.690;8.952;2023-02-19T20:07:18;7.10;99.90
9107;DHT22;4589;48.690;8.952;2023-02-19T20:09:49;7.20;99.90
9107;DHT22;4589;48.690;8.952;2023-02-19T20:12:15;7.20;99.90
9107;DHT22;4589;48.690;8.952;2023-02-19T20:14:45;7.20;99.90
9107;DHT22;4589;48.690;8.952;2023-02-19T20:17:11;7.20;99.90
9107;DHT22;4589;48.690;8.952;2023-02-19T20:19:37;7.20;99.90
9107;DHT22;4589;48.690;8.952;2023-02-19T20:24:28;7.20;99.90
9107;DHT22;4589;48.690;8.952;2023-02-19T20:26:56;7.30;99.90
9107;DHT22;4589;48.690;8.952;2023-02-19T20:29:26;7.20;99.90
9107;DHT22;4589;48.690;8.952;2023-02-19T20:31:53;7.20;99.90
9107;DHT22;4589;48.690;8.952;2023-02-19T20:34:20;7.10;99.90
9107;DHT22;4589;48.690;8.952;2023-02-19T20:36:47;7.20;99.90
9107;DHT22;4589;48.690;8.952;2023-02-19T20:39:15;7.10;99.90
9107;DHT22;4589;48.690;8.952;2023-02-19T20:41:48;7.10;99.90
9107;DHT22;4589;48.690;8.952;2023-02-19T20:44:15;7.10;99.90
9107;DHT22;4589;48.690;8.952;2023-02-19T20:46:45;7.10;99.90
9107;DHT22;4589;48.690;8.952;2023-02-19T20:49:11;7.10;99.90
9107;DHT22;4589;48.690;8.952;2023-02-19T20:51:45;7.10;99.90
9107;DHT22;4589;48.690;8.952;2023-02-19T20:54:11;7.10;99.90
9107;DHT22;4589;48.690;8.952;2023-02-19T20:56:51;7.10;99.90
9107;DHT22;4589;48.690;8.952;2023-02-19T20:59:19;7.00;99.90
9107;DHT22;4589;48.690;8.952;2023-02-19T21:01:45;7.00;99.90
9107;DHT22;4589;48.690;8.952;2023-02-19T21:04:11;7.00;99.90
9107;DHT22;4589;48.690;8.952;2023-02-19T21:06:38;6.90;99.90
9107;DHT22;4589;48.690;8.952;2023-02-19T21:11:30;6.80;99.90
9107;DHT22;4589;48.690;8.952;2023-02-19T21:13:56;6.80;99.90
9107;DHT22;4589;48.690;8.952;2023-02-19T21:16:27;6.80;99.90
9107;DHT22;4589;48.690;8.952;2023-02-19T21:21:20;6.80;99.90
9107;DHT22;4589;48.690;8.952;2023-02-19T21:36:01;6.80;99.90
9107;DHT22;4589;48.690;8.952;2023-02-19T21:43:19;6.90;99.90
9107;DHT22;4589;48.690;8.952;2023-02-19T21:45:45;6.70;99.90
9107;DHT22;4589;48.690;8.952;2023-02-19T21:55:30;6.70;99.90
9107;DHT22;4589;48.690;8.952;2023-02-19T21:57:56;6.70;99.90
9107;DHT22;4589;48.690;8.952;2023-02-19T22:00:22;6.70;99.90
9107;DHT22;4589;48.690;8.952;2023-02-19T22:05:15;6.60;99.90
9107;DHT22;4589;48.690;8.952;2023-02-19T22:07:40;6.50;99.90
9107;DHT22;4589;48.690;8.952;2023-02-19T22:10:07;6.50;99.90
9107;DHT22;4589;48.690;8.952;2023-02-19T22:14:59;6.50;99.90
9107;DHT22;4589;48.690;8.952;2023-02-19T22:17:25;6.50;99.90
9107;DHT22;4589;48.690;8.952;2023-02-19T22:19:51;6.60;99.90
9107;DHT22;4589;48.690;8.952;2023-02-19T22:36:52;6.50;99.90
9107;DHT22;4589;48.690;8.952;2023-02-19T22:39:21;6.60;99.90
9107;DHT22;4589;48.690;8.952;2023-02-19T22:44:13;6.60;99.90
9107;DHT22;4589;48.690;8.952;2023-02-19T22:46:51;6.60;99.90
9107;DHT22;4589;48.690;8.952;2023-02-19T22:49:17;6.60;99.90
9107;DHT22;4589;48.690;8.952;2023-02-19T22:51:55;6.60;99.90
9107;DHT22;4589;48.690;8.952;2023-02-19T22:56:52;6.50;99.90
9107;DHT22;4589;48.690;8.952;2023-02-19T23:09:08;6.70;99.90
9107;DHT22;4589;48.690;8.952;2023-02-19T23:11:35;6.70;99.90
9107;DHT22;4589;48.690;8.952;2023-02-19T23:14:04;6.70;99.90
9107;DHT22;4589;48.690;8.952;2023-02-19T23:19:04;6.70;99.90
9107;DHT22;4589;48.690;8.952;2023-02-19T23:21:30;6.70;99.90
9107;DHT22;4589;48.690;8.952;2023-02-19T23:23:56;6.70;99.90
9107;DHT22;4589;48.690;8.952;2023-02-19T23:28:48;6.70;99.90
9107;DHT22;4589;48.690;8.952;2023-02-19T23:31:15;6.70;99.90
9107;DHT22;4589;48.690;8.952;2023-02-19T23:33:40;6.50;99.90
9107;DHT22;4589;48.690;8.952;2023-02-19T23:36:07;6.60;99.90
9107;DHT22;4589;48.690;8.952;2023-02-19T23:38:32;6.60;99.90
9107;DHT22;4589;48.690;8.952;2023-02-19T23:40:58;6.50;99.90
9107;DHT22;4589;48.690;8.952;2023-02-19T23:45:50;6.50;99.90